createdAt,value
2019-02-17T00:00:30.509Z,0
2019-02-17T00:01:33.527Z,0
2019-02-17T00:02:37.523Z,0
2019-02-17T00:03:38.850Z,0
2019-02-17T00:04:42.016Z,0
2019-02-17T00:05:45.018Z,0
2019-02-17T00:06:48.030Z,0
2019-02-17T00:07:51.024Z,0
2019-02-17T00:08:54.024Z,0
2019-02-17T00:09:57.029Z,0
2019-02-17T00:11:00.015Z,0
2019-02-17T00:12:03.025Z,0
2019-02-17T00:13:06.027Z,0
2019-02-17T00:14:09.026Z,0
2019-02-17T00:15:12.033Z,0
2019-02-17T00:16:15.011Z,0
2019-02-17T00:17:18.024Z,0
2019-02-17T00:18:21.023Z,0
2019-02-17T00:19:24.022Z,0
2019-02-17T00:20:27.030Z,0
2019-02-17T00:21:30.032Z,0
2019-02-17T00:22:33.028Z,0
2019-02-17T00:23:36.025Z,0
2019-02-17T00:24:39.018Z,0
2019-02-17T00:25:42.028Z,0
2019-02-17T00:26:45.030Z,0
2019-02-17T00:27:48.014Z,0
2019-02-17T00:28:59.196Z,0
2019-02-17T00:29:54.025Z,0
2019-02-17T00:30:57.021Z,0
2019-02-17T00:32:00.028Z,0
2019-02-17T00:33:03.040Z,0
2019-02-17T00:34:06.045Z,0
2019-02-17T00:35:09.031Z,0
2019-02-17T00:36:12.043Z,0
2019-02-17T00:37:15.024Z,0
2019-02-17T00:38:18.020Z,0
2019-02-17T00:39:21.034Z,0
2019-02-17T00:40:24.030Z,0
2019-02-17T00:41:27.048Z,0
2019-02-17T00:42:30.029Z,0
2019-02-17T00:43:33.031Z,0
2019-02-17T00:44:36.033Z,0
2019-02-17T00:45:39.022Z,0
2019-02-17T00:46:42.020Z,0
2019-02-17T00:47:45.030Z,0
2019-02-17T00:48:48.020Z,0
2019-02-17T00:49:51.022Z,0
2019-02-17T00:50:54.032Z,0
2019-02-17T00:51:57.064Z,0
2019-02-17T00:53:00.092Z,0
2019-02-17T00:54:03.030Z,0
2019-02-17T00:55:06.029Z,0
2019-02-17T00:56:09.034Z,0
2019-02-17T00:57:12.056Z,0
2019-02-17T00:58:15.035Z,0
2019-02-17T00:59:18.034Z,0
2019-02-17T01:00:21.036Z,0
2019-02-17T01:01:24.039Z,0
2019-02-17T01:02:27.039Z,0
2019-02-17T01:03:30.029Z,0
2019-02-17T01:04:33.159Z,0
2019-02-17T01:05:36.024Z,0
2019-02-17T01:06:39.036Z,0
2019-02-17T01:07:42.043Z,0
2019-02-17T01:08:45.024Z,0
2019-02-17T01:09:48.035Z,0
2019-02-17T01:10:51.028Z,0
2019-02-17T01:11:54.028Z,0
2019-02-17T01:12:57.034Z,0
2019-02-17T01:14:00.025Z,0
2019-02-17T01:15:03.041Z,0
2019-02-17T01:16:06.038Z,0
2019-02-17T01:17:09.030Z,0
2019-02-17T01:18:12.041Z,0
2019-02-17T01:19:15.046Z,0
2019-02-17T01:20:18.058Z,0
2019-02-17T01:21:21.038Z,0
2019-02-17T01:22:24.036Z,0
2019-02-17T01:23:27.030Z,0
2019-02-17T01:24:30.042Z,0
2019-02-17T01:25:33.037Z,0
2019-02-17T01:26:36.040Z,0
2019-02-17T01:27:39.033Z,0
2019-02-17T01:28:42.029Z,0
2019-02-17T01:29:45.032Z,0
2019-02-17T01:30:48.063Z,0
2019-02-17T01:31:51.035Z,0
2019-02-17T01:32:54.037Z,0
2019-02-17T01:33:57.039Z,0
2019-02-17T01:35:00.034Z,0
2019-02-17T01:36:03.064Z,0
2019-02-17T01:37:06.044Z,0
2019-02-17T01:38:09.041Z,0
2019-02-17T01:39:12.044Z,0
2019-02-17T01:40:15.046Z,0
2019-02-17T01:41:18.039Z,0
2019-02-17T01:42:21.042Z,0
2019-02-17T01:43:24.027Z,0
2019-02-17T01:44:27.045Z,0
2019-02-17T01:45:30.048Z,0
2019-02-17T01:46:33.038Z,0
2019-02-17T01:47:36.048Z,0
2019-02-17T01:48:39.031Z,0
2019-02-17T01:49:42.033Z,0
2019-02-17T01:50:45.033Z,0
2019-02-17T01:51:48.046Z,0
2019-02-17T01:52:51.048Z,0
2019-02-17T01:53:54.093Z,0
2019-02-17T01:54:57.038Z,0
2019-02-17T01:56:01.036Z,0
2019-02-17T01:57:04.031Z,0
2019-02-17T01:58:07.036Z,0
2019-02-17T01:59:10.032Z,0
2019-02-17T02:00:13.043Z,0
2019-02-17T02:01:17.160Z,0
2019-02-17T02:02:19.048Z,0
2019-02-17T02:03:22.041Z,0
2019-02-17T02:04:25.065Z,0
2019-02-17T02:05:28.055Z,0
2019-02-17T02:06:31.054Z,0
2019-02-17T02:07:34.043Z,0
2019-02-17T02:08:37.042Z,0
2019-02-17T02:09:40.053Z,0
2019-02-17T02:10:43.053Z,0
2019-02-17T02:11:46.061Z,0
2019-02-17T02:12:49.041Z,0
2019-02-17T02:13:52.052Z,0
2019-02-17T02:14:55.055Z,0
2019-02-17T02:15:58.046Z,0
2019-02-17T02:17:01.033Z,0
2019-02-17T02:18:04.043Z,0
2019-02-17T02:19:07.046Z,0
2019-02-17T02:20:10.032Z,0
2019-02-17T02:21:13.036Z,0
2019-02-17T02:22:16.037Z,0
2019-02-17T02:23:19.043Z,0
2019-02-17T02:24:22.055Z,0
2019-02-17T02:25:25.053Z,0
2019-02-17T02:26:28.067Z,0
2019-02-17T02:27:31.058Z,0
2019-02-17T02:28:34.038Z,0
2019-02-17T02:29:41.001Z,0
2019-02-17T02:30:40.066Z,0
2019-02-17T02:31:43.053Z,0
2019-02-17T02:32:46.045Z,0
2019-02-17T02:33:49.053Z,0
2019-02-17T02:34:52.045Z,0
2019-02-17T02:35:55.036Z,0
2019-02-17T02:36:58.051Z,0
2019-02-17T02:38:01.038Z,0
2019-02-17T02:39:04.043Z,0
2019-02-17T02:40:07.051Z,0
2019-02-17T02:41:10.052Z,0
2019-02-17T02:42:13.049Z,0
2019-02-17T02:43:16.043Z,0
2019-02-17T02:44:19.054Z,0
2019-02-17T02:45:22.046Z,0
2019-02-17T02:46:25.051Z,0
2019-02-17T02:47:28.047Z,0
2019-02-17T02:48:31.043Z,0
2019-02-17T02:49:34.042Z,0
2019-02-17T02:50:37.038Z,0
2019-02-17T02:51:40.050Z,0
2019-02-17T02:52:43.036Z,0
2019-02-17T02:53:46.047Z,0
2019-02-17T02:54:49.049Z,0
2019-02-17T02:55:52.055Z,0
2019-02-17T02:56:55.050Z,0
2019-02-17T02:57:58.082Z,0
2019-02-17T02:59:01.042Z,0
2019-02-17T03:00:04.045Z,0
2019-02-17T03:01:07.048Z,0
2019-02-17T03:02:10.052Z,0
2019-02-17T03:03:13.776Z,0
2019-02-17T03:04:17.040Z,0
2019-02-17T03:05:20.057Z,0
2019-02-17T03:06:23.060Z,0
2019-02-17T03:07:26.064Z,0
2019-02-17T03:08:29.052Z,0
2019-02-17T03:09:32.053Z,0
2019-02-17T03:10:35.052Z,0
2019-02-17T03:11:38.049Z,0
2019-02-17T03:12:41.042Z,0
2019-02-17T03:13:44.058Z,0
2019-02-17T03:14:47.077Z,0
2019-02-17T03:15:50.044Z,0
2019-02-17T03:16:53.061Z,0
2019-02-17T03:17:56.043Z,0
2019-02-17T03:18:59.053Z,0
2019-02-17T03:20:02.057Z,0
2019-02-17T03:21:05.050Z,0
2019-02-17T03:22:08.063Z,0
2019-02-17T03:23:11.049Z,0
2019-02-17T03:24:14.051Z,0
2019-02-17T03:25:17.055Z,0
2019-02-17T03:26:20.065Z,0
2019-02-17T03:27:23.052Z,0
2019-02-17T03:28:26.052Z,0
2019-02-17T03:29:29.045Z,0
2019-02-17T03:30:32.060Z,0
2019-02-17T03:31:35.068Z,0
2019-02-17T03:32:38.063Z,0
2019-02-17T03:33:41.053Z,0
2019-02-17T03:34:44.042Z,0
2019-02-17T03:35:47.108Z,0
2019-02-17T03:36:50.051Z,0
2019-02-17T03:37:53.057Z,0
2019-02-17T03:38:56.057Z,0
2019-02-17T03:39:59.046Z,0
2019-02-17T03:41:02.048Z,0
2019-02-17T03:42:05.043Z,0
2019-02-17T03:43:08.064Z,0
2019-02-17T03:44:11.056Z,0
2019-02-17T03:45:14.050Z,0
2019-02-17T03:46:17.056Z,0
2019-02-17T03:47:20.066Z,0
2019-02-17T03:48:23.063Z,0
2019-02-17T03:49:26.085Z,0
2019-02-17T03:50:29.047Z,0
2019-02-17T03:51:32.055Z,0
2019-02-17T03:52:35.061Z,0
2019-02-17T03:53:38.068Z,0
2019-02-17T03:54:41.049Z,0
2019-02-17T03:55:44.061Z,0
2019-02-17T03:56:47.051Z,0
2019-02-17T03:57:50.056Z,0
2019-02-17T03:58:53.063Z,0
2019-02-17T03:59:56.050Z,0
2019-02-17T04:00:59.056Z,0
2019-02-17T04:02:02.065Z,0
2019-02-17T04:03:05.051Z,0
2019-02-17T04:04:08.052Z,0
2019-02-17T04:05:11.049Z,0
2019-02-17T04:06:14.061Z,0
2019-02-17T04:07:17.067Z,0
2019-02-17T04:08:20.048Z,0
2019-02-17T04:09:23.047Z,0
2019-02-17T04:10:26.063Z,0
2019-02-17T04:11:29.065Z,0
2019-02-17T04:12:32.054Z,0
2019-02-17T04:13:35.050Z,0
2019-02-17T04:14:38.056Z,0
2019-02-17T04:15:41.062Z,0
2019-02-17T04:16:44.085Z,0
2019-02-17T04:17:47.055Z,0
2019-02-17T04:18:50.067Z,0
2019-02-17T04:19:53.055Z,0
2019-02-17T04:20:56.051Z,0
2019-02-17T04:21:59.056Z,0
2019-02-17T04:23:02.069Z,0
2019-02-17T04:24:05.057Z,0
2019-02-17T04:25:08.067Z,0
2019-02-17T04:26:11.055Z,0
2019-02-17T04:27:14.055Z,0
2019-02-17T04:28:17.066Z,0
2019-02-17T04:29:20.067Z,0
2019-02-17T04:30:29.276Z,0
2019-02-17T04:31:26.068Z,0
2019-02-17T04:32:29.061Z,0
2019-02-17T04:33:32.068Z,0
2019-02-17T04:34:35.074Z,0
2019-02-17T04:35:38.066Z,0
2019-02-17T04:36:41.056Z,0
2019-02-17T04:37:44.066Z,0
2019-02-17T04:38:47.051Z,0
2019-02-17T04:39:50.085Z,0
2019-02-17T04:40:53.055Z,0
2019-02-17T04:41:56.066Z,0
2019-02-17T04:42:59.115Z,0
2019-02-17T04:44:02.053Z,0
2019-02-17T04:45:05.074Z,0
2019-02-17T04:46:08.064Z,0
2019-02-17T04:47:11.073Z,0
2019-02-17T04:48:14.052Z,0
2019-02-17T04:49:17.056Z,0
2019-02-17T04:50:20.067Z,0
2019-02-17T04:51:23.071Z,0
2019-02-17T04:52:26.071Z,0
2019-02-17T04:53:29.064Z,0
2019-02-17T04:54:32.173Z,0
2019-02-17T04:55:35.075Z,0
2019-02-17T04:56:38.052Z,0
2019-02-17T04:57:41.102Z,0
2019-02-17T04:58:44.058Z,0
2019-02-17T04:59:47.067Z,0
2019-02-17T05:00:50.218Z,0
2019-02-17T05:01:53.061Z,0
2019-02-17T05:02:56.087Z,0
2019-02-17T05:03:59.072Z,0
2019-02-17T05:05:02.079Z,0
2019-02-17T05:06:05.077Z,0
2019-02-17T05:07:08.073Z,0
2019-02-17T05:08:11.073Z,0
2019-02-17T05:09:14.074Z,0
2019-02-17T05:10:17.072Z,0
2019-02-17T05:11:20.072Z,0
2019-02-17T05:12:23.060Z,0
2019-02-17T05:13:26.069Z,0
2019-02-17T05:14:29.077Z,0
2019-02-17T05:15:32.067Z,0
2019-02-17T05:16:35.077Z,0
2019-02-17T05:17:38.061Z,0
2019-02-17T05:18:41.105Z,0
2019-02-17T05:19:44.097Z,0
2019-02-17T05:20:47.060Z,0
2019-02-17T05:21:50.079Z,0
2019-02-17T05:22:53.072Z,0
2019-02-17T05:23:56.069Z,0
2019-02-17T05:24:59.101Z,0
2019-02-17T05:26:02.073Z,0
2019-02-17T05:27:05.058Z,0
2019-02-17T05:28:08.059Z,0
2019-02-17T05:29:11.062Z,0
2019-02-17T05:30:14.078Z,0
2019-02-17T05:31:17.064Z,0
2019-02-17T05:32:20.078Z,0
2019-02-17T05:33:23.070Z,0
2019-02-17T05:34:26.078Z,0
2019-02-17T05:35:29.072Z,0
2019-02-17T05:36:32.066Z,0
2019-02-17T05:37:35.074Z,0
2019-02-17T05:38:38.075Z,0
2019-02-17T05:39:41.073Z,0
2019-02-17T05:40:44.113Z,0
2019-02-17T05:41:47.088Z,0
2019-02-17T05:42:50.077Z,0
2019-02-17T05:43:53.082Z,0
2019-02-17T05:44:56.175Z,0
2019-02-17T05:45:59.105Z,0
2019-02-17T05:47:39.957Z,0
2019-02-17T05:48:42.940Z,0
2019-02-17T05:49:45.944Z,0
2019-02-17T05:50:48.940Z,0
2019-02-17T05:51:51.937Z,0
2019-02-17T05:52:54.930Z,0
2019-02-17T05:53:57.932Z,0
2019-02-17T05:55:00.948Z,0
2019-02-17T05:56:04.068Z,0
2019-02-17T05:57:06.955Z,0
2019-02-17T05:58:09.941Z,0
2019-02-17T05:59:12.937Z,0
2019-02-17T06:00:15.943Z,0
2019-02-17T06:01:18.944Z,0
2019-02-17T06:02:21.953Z,0
2019-02-17T06:03:24.932Z,0
2019-02-17T06:04:27.959Z,0
2019-02-17T06:05:30.948Z,0
2019-02-17T06:06:33.936Z,0
2019-02-17T06:07:36.941Z,0
2019-02-17T06:08:39.954Z,0
2019-02-17T06:09:42.940Z,0
2019-02-17T06:10:45.947Z,0
2019-02-17T06:11:48.949Z,0
2019-02-17T06:12:51.963Z,0
2019-02-17T06:13:54.945Z,0
2019-02-17T06:14:57.939Z,0
2019-02-17T06:16:00.948Z,0
2019-02-17T06:17:03.948Z,0
2019-02-17T06:18:06.951Z,0
2019-02-17T06:19:09.945Z,0
2019-02-17T06:20:12.937Z,5
2019-02-17T06:21:15.941Z,5
2019-02-17T06:22:18.985Z,5
2019-02-17T06:23:21.950Z,5
2019-02-17T06:24:24.968Z,5
2019-02-17T06:25:27.940Z,5
2019-02-17T06:26:30.944Z,11
2019-02-17T06:27:33.941Z,11
2019-02-17T06:28:36.939Z,11
2019-02-17T06:29:39.945Z,11
2019-02-17T06:30:42.944Z,16
2019-02-17T06:31:45.947Z,16
2019-02-17T06:32:48.953Z,16
2019-02-17T06:33:51.953Z,16
2019-02-17T06:34:54.948Z,22
2019-02-17T06:35:57.955Z,22
2019-02-17T06:37:00.940Z,22
2019-02-17T06:38:04.936Z,28
2019-02-17T06:39:07.944Z,28
2019-02-17T06:40:10.948Z,33
2019-02-17T06:41:13.944Z,33
2019-02-17T06:42:17.034Z,39
2019-02-17T06:43:19.949Z,39
2019-02-17T06:44:22.949Z,39
2019-02-17T06:45:25.939Z,45
2019-02-17T06:46:28.943Z,45
2019-02-17T06:47:31.944Z,50
2019-02-17T06:48:34.961Z,50
2019-02-17T06:49:37.973Z,56
2019-02-17T06:50:40.952Z,56
2019-02-17T06:51:43.957Z,61
2019-02-17T06:52:46.971Z,61
2019-02-17T06:53:49.955Z,67
2019-02-17T06:54:52.960Z,67
2019-02-17T06:55:55.961Z,73
2019-02-17T06:56:58.948Z,73
2019-02-17T06:58:01.942Z,78
2019-02-17T06:59:04.942Z,78
2019-02-17T07:00:07.955Z,84
2019-02-17T07:01:10.959Z,84
2019-02-17T07:02:13.936Z,90
2019-02-17T07:03:16.985Z,90
2019-02-17T07:04:19.978Z,95
2019-02-17T07:05:22.980Z,95
2019-02-17T07:06:25.983Z,101
2019-02-17T07:07:29.043Z,101
2019-02-17T07:08:31.950Z,106
2019-02-17T07:09:34.952Z,106
2019-02-17T07:10:37.956Z,106
2019-02-17T07:11:40.957Z,112
2019-02-17T07:12:43.967Z,112
2019-02-17T07:13:46.953Z,118
2019-02-17T07:14:49.956Z,118
2019-02-17T07:15:52.946Z,123
2019-02-17T07:16:55.969Z,129
2019-02-17T07:17:59.179Z,129
2019-02-17T07:19:01.951Z,129
2019-02-17T07:20:04.951Z,135
2019-02-17T07:21:07.947Z,135
2019-02-17T07:22:10.968Z,140
2019-02-17T07:23:15.201Z,140
2019-02-17T07:24:16.964Z,146
2019-02-17T07:25:29.393Z,146
2019-02-17T07:26:22.956Z,151
2019-02-17T07:27:25.957Z,151
2019-02-17T07:28:28.959Z,157
2019-02-17T07:29:31.976Z,157
2019-02-17T07:30:34.961Z,163
2019-02-17T07:31:37.950Z,163
2019-02-17T07:32:40.952Z,168
2019-02-17T07:33:44.005Z,168
2019-02-17T07:34:46.965Z,174
2019-02-17T07:35:49.973Z,174
2019-02-17T07:36:52.962Z,180
2019-02-17T07:37:55.966Z,174
2019-02-17T07:38:58.962Z,180
2019-02-17T07:40:01.956Z,185
2019-02-17T07:41:04.955Z,202
2019-02-17T07:42:09.571Z,258
2019-02-17T07:43:10.955Z,326
2019-02-17T07:44:13.966Z,371
2019-02-17T07:45:16.970Z,365
2019-02-17T07:46:19.978Z,331
2019-02-17T07:47:23.026Z,416
2019-02-17T07:48:25.951Z,450
2019-02-17T07:49:28.957Z,478
2019-02-17T07:50:31.975Z,500
2019-02-17T07:51:34.967Z,450
2019-02-17T07:52:37.967Z,388
2019-02-17T07:53:40.967Z,371
2019-02-17T07:54:43.966Z,388
2019-02-17T07:55:46.964Z,427
2019-02-17T07:56:49.971Z,382
2019-02-17T07:57:52.957Z,354
2019-02-17T07:58:55.964Z,410
2019-02-17T07:59:58.963Z,483
2019-02-17T08:01:01.974Z,489
2019-02-17T08:02:04.967Z,500
2019-02-17T08:03:07.967Z,495
2019-02-17T08:04:10.961Z,562
2019-02-17T08:05:13.967Z,630
2019-02-17T08:06:16.962Z,663
2019-02-17T08:07:19.968Z,675
2019-02-17T08:08:22.965Z,675
2019-02-17T08:09:25.976Z,675
2019-02-17T08:10:28.987Z,669
2019-02-17T08:11:31.960Z,680
2019-02-17T08:12:34.972Z,703
2019-02-17T08:13:37.978Z,703
2019-02-17T08:14:40.972Z,708
2019-02-17T08:15:43.983Z,714
2019-02-17T08:16:46.976Z,720
2019-02-17T08:17:49.971Z,725
2019-02-17T08:18:52.957Z,725
2019-02-17T08:19:55.967Z,736
2019-02-17T08:20:58.971Z,748
2019-02-17T08:22:02.967Z,770
2019-02-17T08:23:05.981Z,804
2019-02-17T08:24:08.963Z,843
2019-02-17T08:25:19.377Z,855
2019-02-17T08:26:15.066Z,838
2019-02-17T08:27:17.970Z,838
2019-02-17T08:28:20.974Z,832
2019-02-17T08:29:23.974Z,838
2019-02-17T08:30:26.967Z,866
2019-02-17T08:31:29.974Z,888
2019-02-17T08:32:32.973Z,928
2019-02-17T08:33:35.973Z,990
2019-02-17T08:34:38.964Z,990
2019-02-17T08:35:41.988Z,1001
2019-02-17T08:36:44.982Z,984
2019-02-17T08:37:48.184Z,967
2019-02-17T08:38:50.983Z,961
2019-02-17T08:40:03.917Z,973
2019-02-17T08:41:06.977Z,1006
2019-02-17T08:42:09.974Z,1035
2019-02-17T08:43:12.980Z,1068
2019-02-17T08:44:15.988Z,1068
2019-02-17T08:45:18.986Z,1113
2019-02-17T08:46:21.981Z,1153
2019-02-17T08:47:24.968Z,1170
2019-02-17T08:48:27.983Z,1136
2019-02-17T08:49:30.984Z,1074
2019-02-17T08:50:33.983Z,1001
2019-02-17T08:51:36.979Z,939
2019-02-17T08:52:39.981Z,905
2019-02-17T08:53:42.976Z,905
2019-02-17T08:54:45.984Z,900
2019-02-17T08:55:48.997Z,905
2019-02-17T08:56:51.992Z,916
2019-02-17T08:57:55.052Z,922
2019-02-17T08:58:57.995Z,967
2019-02-17T09:00:00.982Z,961
2019-02-17T09:01:04.008Z,950
2019-02-17T09:02:06.991Z,978
2019-02-17T09:03:09.977Z,990
2019-02-17T09:04:12.987Z,1012
2019-02-17T09:05:15.975Z,1040
2019-02-17T09:06:19.991Z,1051
2019-02-17T09:07:22.994Z,1068
2019-02-17T09:08:25.989Z,1057
2019-02-17T09:09:28.977Z,1040
2019-02-17T09:10:31.979Z,1018
2019-02-17T09:11:35.000Z,1006
2019-02-17T09:12:38.071Z,1006
2019-02-17T09:13:40.982Z,995
2019-02-17T09:14:43.983Z,1001
2019-02-17T09:15:47.035Z,1001
2019-02-17T09:16:49.987Z,1023
2019-02-17T09:17:53.001Z,1035
2019-02-17T09:18:55.994Z,1046
2019-02-17T09:19:58.994Z,1063
2019-02-17T09:21:01.991Z,1068
2019-02-17T09:22:04.996Z,1057
2019-02-17T09:23:07.997Z,1063
2019-02-17T09:24:10.998Z,1096
2019-02-17T09:25:13.989Z,1141
2019-02-17T09:26:17.034Z,1175
2019-02-17T09:27:19.994Z,1192
2019-02-17T09:28:22.992Z,1181
2019-02-17T09:29:26.004Z,1141
2019-02-17T09:30:28.996Z,1125
2019-02-17T09:31:32.004Z,1125
2019-02-17T09:32:34.984Z,1130
2019-02-17T09:33:38.005Z,1164
2019-02-17T09:34:41.119Z,1203
2019-02-17T09:35:44.070Z,1215
2019-02-17T09:36:47.020Z,1248
2019-02-17T09:37:51.003Z,1327
2019-02-17T09:38:53.991Z,1321
2019-02-17T09:39:57.178Z,1333
2019-02-17T09:41:00.603Z,1333
2019-02-17T09:42:03.499Z,1237
2019-02-17T09:43:06.504Z,1175
2019-02-17T09:44:09.518Z,1164
2019-02-17T09:45:12.495Z,1164
2019-02-17T09:46:15.493Z,1158
2019-02-17T09:47:18.505Z,1158
2019-02-17T09:48:21.503Z,1231
2019-02-17T09:49:24.506Z,1299
2019-02-17T09:50:27.503Z,1355
2019-02-17T09:51:30.515Z,1355
2019-02-17T09:52:33.505Z,1321
2019-02-17T09:53:36.496Z,1271
2019-02-17T09:54:39.544Z,1231
2019-02-17T09:55:42.499Z,1243
2019-02-17T09:56:45.511Z,1243
2019-02-17T09:57:48.510Z,1203
2019-02-17T09:58:51.508Z,1203
2019-02-17T09:59:54.560Z,1198
2019-02-17T10:00:57.515Z,1198
2019-02-17T10:02:00.529Z,1209
2019-02-17T10:03:03.561Z,1237
2019-02-17T10:04:06.525Z,1260
2019-02-17T10:05:09.505Z,1237
2019-02-17T10:06:12.504Z,1231
2019-02-17T10:07:15.523Z,1254
2019-02-17T10:08:18.509Z,1338
2019-02-17T10:09:21.505Z,1389
2019-02-17T10:10:24.515Z,1400
2019-02-17T10:11:27.533Z,1395
2019-02-17T10:12:30.508Z,1344
2019-02-17T10:13:33.649Z,1350
2019-02-17T10:14:36.517Z,1485
2019-02-17T10:15:39.503Z,1580
2019-02-17T10:16:42.517Z,1417
2019-02-17T10:17:45.514Z,1293
2019-02-17T10:18:48.515Z,1288
2019-02-17T10:19:51.588Z,1276
2019-02-17T10:20:54.517Z,1299
2019-02-17T10:21:57.514Z,1417
2019-02-17T10:23:00.536Z,1428
2019-02-17T10:24:03.513Z,1569
2019-02-17T10:25:06.512Z,1665
2019-02-17T10:26:09.510Z,1558
2019-02-17T10:27:12.595Z,1597
2019-02-17T10:28:15.518Z,1636
2019-02-17T10:29:18.513Z,1687
2019-02-17T10:30:21.509Z,1777
2019-02-17T10:31:24.524Z,1710
2019-02-17T10:32:35.997Z,1670
2019-02-17T10:33:30.528Z,1620
2019-02-17T10:34:33.517Z,1861
2019-02-17T10:35:36.545Z,1816
2019-02-17T10:36:39.515Z,1535
2019-02-17T10:37:42.512Z,1479
2019-02-17T10:38:45.523Z,1468
2019-02-17T10:39:48.563Z,1451
2019-02-17T10:40:52.533Z,1575
2019-02-17T10:41:55.514Z,1811
2019-02-17T10:42:58.537Z,1693
2019-02-17T10:44:01.518Z,1642
2019-02-17T10:45:04.525Z,1698
2019-02-17T10:46:07.561Z,1631
2019-02-17T10:47:10.535Z,1496
2019-02-17T10:48:13.553Z,1445
2019-02-17T10:49:16.544Z,1434
2019-02-17T10:50:19.554Z,1445
2019-02-17T10:51:22.535Z,1485
2019-02-17T10:52:25.521Z,1541
2019-02-17T10:53:28.544Z,1591
2019-02-17T10:54:31.539Z,1648
2019-02-17T10:55:34.529Z,1805
2019-02-17T10:56:37.526Z,1693
2019-02-17T10:57:40.532Z,1501
2019-02-17T10:58:43.524Z,1479
2019-02-17T10:59:46.592Z,1479
2019-02-17T11:00:49.573Z,1485
2019-02-17T11:01:52.530Z,1490
2019-02-17T11:02:55.525Z,1473
2019-02-17T11:03:58.534Z,1456
2019-02-17T11:05:01.545Z,1428
2019-02-17T11:06:04.538Z,1440
2019-02-17T11:07:07.926Z,1434
2019-02-17T11:08:11.066Z,1440
2019-02-17T11:09:14.043Z,1434
2019-02-17T11:10:17.045Z,1423
2019-02-17T11:11:20.027Z,1445
2019-02-17T11:12:23.591Z,1445
2019-02-17T11:13:26.045Z,1456
2019-02-17T11:14:29.073Z,1440
2019-02-17T11:15:32.045Z,1440
2019-02-17T11:16:35.036Z,1440
2019-02-17T11:17:38.059Z,1456
2019-02-17T11:18:41.053Z,1456
2019-02-17T11:19:44.125Z,1468
2019-02-17T11:20:47.050Z,1507
2019-02-17T11:21:50.060Z,1569
2019-02-17T11:22:53.072Z,1462
2019-02-17T11:23:56.125Z,1372
2019-02-17T11:24:59.093Z,1355
2019-02-17T11:26:02.060Z,1350
2019-02-17T11:27:05.045Z,1350
2019-02-17T11:28:08.071Z,1338
2019-02-17T11:29:11.059Z,1321
2019-02-17T11:30:14.062Z,1321
2019-02-17T11:31:17.050Z,1316
2019-02-17T11:32:20.066Z,1305
2019-02-17T11:33:23.066Z,1293
2019-02-17T11:34:26.070Z,1316
2019-02-17T11:35:29.862Z,1327
2019-02-17T11:36:32.080Z,1338
2019-02-17T11:37:35.416Z,1338
2019-02-17T11:38:38.755Z,1333
2019-02-17T11:39:42.166Z,1333
2019-02-17T11:40:45.094Z,1288
2019-02-17T11:41:48.947Z,1260
2019-02-17T11:42:53.029Z,1265
2019-02-17T11:43:56.903Z,1310
2019-02-17T11:45:00.134Z,1333
2019-02-17T11:46:03.412Z,1338
2019-02-17T11:47:07.446Z,1361
2019-02-17T11:48:47.445Z,1361
2019-02-17T11:49:50.421Z,1355
2019-02-17T11:50:53.443Z,1361
2019-02-17T11:51:56.419Z,1361
2019-02-17T11:52:59.452Z,1372
2019-02-17T11:54:02.427Z,1378
2019-02-17T11:55:05.472Z,1366
2019-02-17T11:56:08.425Z,1327
2019-02-17T11:57:11.446Z,1338
2019-02-17T11:58:14.438Z,1366
2019-02-17T11:59:17.436Z,1395
2019-02-17T12:00:20.438Z,1423
2019-02-17T12:01:23.495Z,1445
2019-02-17T12:02:26.446Z,1479
2019-02-17T12:03:29.435Z,1507
2019-02-17T12:04:32.422Z,1535
2019-02-17T12:05:35.437Z,1580
2019-02-17T12:06:38.447Z,1580
2019-02-17T12:07:41.449Z,1575
2019-02-17T12:08:44.437Z,1681
2019-02-17T12:09:47.456Z,1693
2019-02-17T12:10:50.442Z,1670
2019-02-17T12:11:53.564Z,1631
2019-02-17T12:12:56.932Z,1591
2019-02-17T12:13:59.931Z,1530
2019-02-17T12:15:02.944Z,1485
2019-02-17T12:16:05.935Z,1445
2019-02-17T12:17:08.942Z,1451
2019-02-17T12:18:11.931Z,1428
2019-02-17T12:19:14.945Z,1462
2019-02-17T12:20:17.970Z,1468
2019-02-17T12:21:20.935Z,1434
2019-02-17T12:22:23.950Z,1395
2019-02-17T12:23:26.947Z,1400
2019-02-17T12:24:29.935Z,1395
2019-02-17T12:25:32.947Z,1389
2019-02-17T12:26:35.945Z,1395
2019-02-17T12:27:38.947Z,1406
2019-02-17T12:28:41.946Z,1417
2019-02-17T12:29:44.953Z,1411
2019-02-17T12:30:47.989Z,1395
2019-02-17T12:31:50.944Z,1389
2019-02-17T12:32:53.940Z,1344
2019-02-17T12:33:56.946Z,1338
2019-02-17T12:34:59.980Z,1333
2019-02-17T12:36:02.958Z,1327
2019-02-17T12:37:05.948Z,1321
2019-02-17T12:38:08.956Z,1338
2019-02-17T12:39:11.950Z,1310
2019-02-17T12:40:14.964Z,1243
2019-02-17T12:41:17.991Z,1203
2019-02-17T12:42:20.940Z,1265
2019-02-17T12:43:23.954Z,1271
2019-02-17T12:44:26.981Z,1231
2019-02-17T12:45:29.953Z,1271
2019-02-17T12:46:32.982Z,1378
2019-02-17T12:47:35.955Z,1411
2019-02-17T12:48:39.825Z,1344
2019-02-17T12:49:41.957Z,1293
2019-02-17T12:50:44.951Z,1310
2019-02-17T12:51:47.965Z,1344
2019-02-17T12:52:50.954Z,1350
2019-02-17T12:53:53.962Z,1406
2019-02-17T12:54:56.961Z,1445
2019-02-17T12:56:00.012Z,1451
2019-02-17T12:57:02.947Z,1456
2019-02-17T12:58:05.976Z,1423
2019-02-17T12:59:08.951Z,1395
2019-02-17T13:00:11.967Z,1395
2019-02-17T13:01:14.965Z,1440
2019-02-17T13:02:17.948Z,1485
2019-02-17T13:03:28.247Z,1513
2019-02-17T13:04:23.957Z,1524
2019-02-17T13:05:26.963Z,1530
2019-02-17T13:06:29.966Z,1456
2019-02-17T13:07:32.961Z,1451
2019-02-17T13:08:35.967Z,1451
2019-02-17T13:09:38.966Z,1473
2019-02-17T13:10:41.958Z,1501
2019-02-17T13:11:44.975Z,1530
2019-02-17T13:12:47.967Z,1513
2019-02-17T13:13:50.971Z,1501
2019-02-17T13:14:53.971Z,1541
2019-02-17T13:15:56.971Z,1580
2019-02-17T13:16:59.984Z,1524
2019-02-17T13:18:02.969Z,1456
2019-02-17T13:19:05.971Z,1451
2019-02-17T13:20:08.962Z,1423
2019-02-17T13:21:11.966Z,1366
2019-02-17T13:22:14.972Z,1310
2019-02-17T13:23:17.972Z,1288
2019-02-17T13:24:20.966Z,1355
2019-02-17T13:25:23.986Z,1417
2019-02-17T13:26:26.961Z,1485
2019-02-17T13:27:29.970Z,1496
2019-02-17T13:28:32.974Z,1479
2019-02-17T13:29:35.961Z,1501
2019-02-17T13:30:38.960Z,1552
2019-02-17T13:31:41.973Z,1580
2019-02-17T13:32:44.973Z,1698
2019-02-17T13:33:47.962Z,1856
2019-02-17T13:34:50.975Z,1957
2019-02-17T13:35:54.012Z,1895
2019-02-17T13:36:56.968Z,1783
2019-02-17T13:37:59.977Z,1704
2019-02-17T13:39:02.978Z,1676
2019-02-17T13:40:05.988Z,1676
2019-02-17T13:41:08.980Z,1591
2019-02-17T13:42:11.978Z,1417
2019-02-17T13:43:14.973Z,1350
2019-02-17T13:44:17.989Z,1366
2019-02-17T13:45:20.972Z,1305
2019-02-17T13:46:23.983Z,1310
2019-02-17T13:47:26.979Z,1333
2019-02-17T13:48:29.991Z,1316
2019-02-17T13:49:32.975Z,1350
2019-02-17T13:50:35.976Z,1254
2019-02-17T13:51:38.977Z,1074
2019-02-17T13:52:41.976Z,984
2019-02-17T13:53:44.968Z,894
2019-02-17T13:54:47.996Z,787
2019-02-17T13:55:50.987Z,742
2019-02-17T13:56:53.972Z,697
2019-02-17T13:57:56.987Z,675
2019-02-17T13:58:59.992Z,652
2019-02-17T14:00:02.986Z,624
2019-02-17T14:01:05.988Z,596
2019-02-17T14:02:08.986Z,579
2019-02-17T14:03:11.993Z,556
2019-02-17T14:04:14.988Z,551
2019-02-17T14:05:17.984Z,523
2019-02-17T14:06:20.993Z,511
2019-02-17T14:07:23.995Z,500
2019-02-17T14:08:26.993Z,495
2019-02-17T14:09:29.996Z,478
2019-02-17T14:10:32.996Z,472
2019-02-17T14:11:36.043Z,461
2019-02-17T14:12:38.983Z,450
2019-02-17T14:13:41.993Z,450
2019-02-17T14:14:45.003Z,444
2019-02-17T14:15:47.997Z,438
2019-02-17T14:16:51.023Z,438
2019-02-17T14:17:53.983Z,438
2019-02-17T14:18:57.008Z,427
2019-02-17T14:20:00.018Z,427
2019-02-17T14:21:02.988Z,427
2019-02-17T14:22:05.994Z,421
2019-02-17T14:23:08.986Z,421
2019-02-17T14:24:11.999Z,410
2019-02-17T14:25:15.002Z,410
2019-02-17T14:26:17.994Z,405
2019-02-17T14:27:20.992Z,399
2019-02-17T14:28:23.988Z,399
2019-02-17T14:29:26.998Z,393
2019-02-17T14:30:30.498Z,393
2019-02-17T14:31:33.012Z,388
2019-02-17T14:32:35.991Z,382
2019-02-17T14:33:38.993Z,376
2019-02-17T14:34:42.008Z,371
2019-02-17T14:35:45.705Z,365
2019-02-17T14:36:49.662Z,360
2019-02-17T14:37:53.612Z,354
2019-02-17T14:38:57.058Z,354
2019-02-17T14:39:59.517Z,354
2019-02-17T14:41:02.507Z,354
2019-02-17T14:42:07.776Z,354
2019-02-17T14:43:11.024Z,348
2019-02-17T14:44:14.037Z,343
2019-02-17T14:45:17.021Z,343
2019-02-17T14:46:20.004Z,337